sensor_id;sensor_type;location;lat;lon;timestamp;pressure;altitude;pressure_sealevel;temperature;humidity
51585;BME280;37669;50.312;18.670;2022-12-04T10:57:37;49395.19;;;-145.86;87.87
51585;BME280;37669;50.312;18.670;2022-12-04T11:00:23;49401.13;;;-145.86;87.32
51585;BME280;37669;50.312;18.670;2022-12-04T11:02:52;49371.44;;;-145.86;87.11
51585;BME280;37669;50.312;18.670;2022-12-04T11:07:50;49367.47;;;-145.86;87.11
51585;BME280;37669;50.312;18.670;2022-12-04T11:10:20;49345.69;;;-145.86;87.43
51585;BME280;37669;50.312;18.670;2022-12-04T11:12:56;49347.66;;;-145.86;87.26
51585;BME280;37669;50.312;18.670;2022-12-04T11:15:24;49381.34;;;-145.86;87.66
51585;BME280;37669;50.312;18.670;2022-12-04T11:17:51;49397.19;;;-145.86;87.87
51585;BME280;37669;50.312;18.670;2022-12-04T11:20:20;49323.91;;;-145.86;87.88
51585;BME280;37669;50.312;18.670;2022-12-04T11:22:50;49349.66;;;-145.86;87.83
51585;BME280;37669;50.312;18.670;2022-12-04T11:25:20;49361.53;;;-145.86;87.87
51585;BME280;37669;50.312;18.670;2022-12-04T11:27:49;49369.47;;;-145.86;88.08
51585;BME280;37669;50.312;18.670;2022-12-04T11:30:23;49373.41;;;-145.86;87.50
51585;BME280;37669;50.312;18.670;2022-12-04T11:32:51;49363.50;;;-145.86;87.21
51585;BME280;37669;50.312;18.670;2022-12-04T11:35:22;49365.50;;;-145.86;86.48
51585;BME280;37669;50.312;18.670;2022-12-04T11:37:54;49361.53;;;-145.86;86.28
51585;BME280;37669;50.312;18.670;2022-12-04T11:40:24;49365.50;;;-145.86;86.14
51585;BME280;37669;50.312;18.670;2022-12-04T11:43:02;49363.50;;;-145.86;85.66
51585;BME280;37669;50.312;18.670;2022-12-04T11:45:31;49365.50;;;-145.86;85.54
51585;BME280;37669;50.312;18.670;2022-12-04T11:48:01;49369.47;;;-145.86;85.36
51585;BME280;37669;50.312;18.670;2022-12-04T11:50:35;49373.41;;;-145.86;85.35
51585;BME280;37669;50.312;18.670;2022-12-04T11:53:13;49339.75;;;-145.86;85.05
51585;BME280;37669;50.312;18.670;2022-12-04T11:55:57;49357.56;;;-145.86;85.43
51585;BME280;37669;50.312;18.670;2022-12-04T11:58:45;49365.50;;;-145.86;84.57
51585;BME280;37669;50.312;18.670;2022-12-04T12:01:25;49377.38;;;-145.86;85.13
51585;BME280;37669;50.312;18.670;2022-12-04T12:06:32;49381.34;;;-145.86;84.49
51585;BME280;37669;50.312;18.670;2022-12-04T12:09:11;49373.41;;;-145.86;84.30
51585;BME280;37669;50.312;18.670;2022-12-04T12:11:43;49393.22;;;-145.86;84.23
51585;BME280;37669;50.312;18.670;2022-12-04T12:14:18;49371.44;;;-145.86;84.10
51585;BME280;37669;50.312;18.670;2022-12-04T12:16:57;49393.22;;;-145.86;83.85
51585;BME280;37669;50.312;18.670;2022-12-04T12:19:47;49351.63;;;-145.86;83.23
51585;BME280;37669;50.312;18.670;2022-12-04T12:22:38;49393.22;;;-145.86;82.87
51585;BME280;37669;50.312;18.670;2022-12-04T12:25:13;49401.13;;;-145.86;83.09
51585;BME280;37669;50.312;18.670;2022-12-04T12:27:57;49357.56;;;-145.86;82.83
51585;BME280;37669;50.312;18.670;2022-12-04T12:30:30;49357.56;;;-145.86;82.73
51585;BME280;37669;50.312;18.670;2022-12-04T12:33:09;49347.66;;;-145.86;82.86
51585;BME280;37669;50.312;18.670;2022-12-04T12:35:48;49331.81;;;-145.86;82.32
51585;BME280;37669;50.312;18.670;2022-12-04T12:38:20;49367.47;;;-145.86;82.45
51585;BME280;37669;50.312;18.670;2022-12-04T12:40:52;49349.66;;;-145.86;82.56
51585;BME280;37669;50.312;18.670;2022-12-04T12:43:26;49375.41;;;-145.86;82.41
51585;BME280;37669;50.312;18.670;2022-12-04T12:45:58;49373.41;;;-145.86;81.40
51585;BME280;37669;50.312;18.670;2022-12-04T12:48:32;49393.22;;;-145.86;81.46
51585;BME280;37669;50.312;18.670;2022-12-04T12:51:06;49363.50;;;-145.86;80.99
51585;BME280;37669;50.312;18.670;2022-12-04T12:53:38;49391.25;;;-145.86;80.91
51585;BME280;37669;50.312;18.670;2022-12-04T12:56:07;49403.13;;;-145.86;80.44
51585;BME280;37669;50.312;18.670;2022-12-04T13:47:55;49389.25;;;-145.86;84.50
51585;BME280;37669;50.312;18.670;2022-12-04T13:50:31;49385.28;;;-145.86;84.96
51585;BME280;37669;50.312;18.670;2022-12-04T13:55:29;49347.66;;;-145.86;85.30
51585;BME280;37669;50.312;18.670;2022-12-04T13:57:58;49371.44;;;-145.86;85.16
51585;BME280;37669;50.312;18.670;2022-12-04T14:00:29;49381.34;;;-145.86;85.48
51585;BME280;37669;50.312;18.670;2022-12-04T14:03:02;49339.75;;;-145.86;86.04
51585;BME280;37669;50.312;18.670;2022-12-04T14:05:33;49393.22;;;-145.86;86.06
51585;BME280;37669;50.312;18.670;2022-12-04T14:08:07;49385.28;;;-145.86;86.36
51585;BME280;37669;50.312;18.670;2022-12-04T14:10:56;49349.66;;;-145.86;86.79
51585;BME280;37669;50.312;18.670;2022-12-04T14:13:27;49365.50;;;-145.86;87.15
51585;BME280;37669;50.312;18.670;2022-12-04T14:16:02;49385.28;;;-145.86;87.30
51585;BME280;37669;50.312;18.670;2022-12-04T14:18:31;49383.31;;;-145.86;87.60
51585;BME280;37669;50.312;18.670;2022-12-04T14:21:00;49373.41;;;-145.86;87.87
51585;BME280;37669;50.312;18.670;2022-12-04T14:23:34;49369.47;;;-145.86;88.09
51585;BME280;37669;50.312;18.670;2022-12-04T14:26:02;49381.34;;;-145.86;88.12
51585;BME280;37669;50.312;18.670;2022-12-04T14:28:40;49343.72;;;-145.86;88.59
51585;BME280;37669;50.312;18.670;2022-12-04T14:31:18;49363.50;;;-145.86;88.63
51585;BME280;37669;50.312;18.670;2022-12-04T14:33:51;49365.50;;;-145.86;88.42
51585;BME280;37669;50.312;18.670;2022-12-04T14:36:22;49353.63;;;-145.86;88.77
51585;BME280;37669;50.312;18.670;2022-12-04T14:38:59;49343.72;;;-145.86;89.09
51585;BME280;37669;50.312;18.670;2022-12-04T14:41:27;49375.41;;;-145.86;89.13
51585;BME280;37669;50.312;18.670;2022-12-04T14:43:55;49399.16;;;-145.86;89.75
51585;BME280;37669;50.312;18.670;2022-12-04T14:46:29;49353.63;;;-145.86;89.74
51585;BME280;37669;50.312;18.670;2022-12-04T14:49:07;49373.41;;;-145.86;89.82
51585;BME280;37669;50.312;18.670;2022-12-04T14:51:42;49349.66;;;-145.86;90.08
51585;BME280;37669;50.312;18.670;2022-12-04T14:54:18;49369.47;;;-145.86;90.00
51585;BME280;37669;50.312;18.670;2022-12-04T14:56:55;49347.66;;;-145.86;90.57
51585;BME280;37669;50.312;18.670;2022-12-04T14:59:39;49361.53;;;-145.86;90.93
51585;BME280;37669;50.312;18.670;2022-12-04T15:02:10;49387.28;;;-145.86;90.68
51585;BME280;37669;50.312;18.670;2022-12-04T15:04:40;49383.31;;;-145.86;91.05
51585;BME280;37669;50.312;18.670;2022-12-04T15:07:16;49355.59;;;-145.86;91.29
51585;BME280;37669;50.312;18.670;2022-12-04T15:09:50;49369.47;;;-145.86;91.18
51585;BME280;37669;50.312;18.670;2022-12-04T15:12:40;49401.13;;;-145.86;91.45
51585;BME280;37669;50.312;18.670;2022-12-04T15:15:13;49369.47;;;-145.86;91.36
51585;BME280;37669;50.312;18.670;2022-12-04T15:17:42;49407.09;;;-145.86;91.74
51585;BME280;37669;50.312;18.670;2022-12-04T15:20:15;49369.47;;;-145.86;91.62
51585;BME280;37669;50.312;18.670;2022-12-04T15:22:42;49369.47;;;-145.86;92.07
51585;BME280;37669;50.312;18.670;2022-12-04T15:25:16;49391.25;;;-145.86;91.97
51585;BME280;37669;50.312;18.670;2022-12-04T15:27:45;49361.53;;;-145.86;92.09
51585;BME280;37669;50.312;18.670;2022-12-04T15:30:16;49365.50;;;-145.86;92.46
51585;BME280;37669;50.312;18.670;2022-12-04T15:32:44;49385.28;;;-145.86;92.59
51585;BME280;37669;50.312;18.670;2022-12-04T15:37:42;49399.16;;;-145.86;93.16
51585;BME280;37669;50.312;18.670;2022-12-04T15:40:19;49353.63;;;-145.86;93.63
51585;BME280;37669;50.312;18.670;2022-12-04T15:42:46;49409.06;;;-145.86;93.72
51585;BME280;37669;50.312;18.670;2022-12-04T15:45:27;49389.25;;;-145.86;94.04
51585;BME280;37669;50.312;18.670;2022-12-04T16:02:00;49407.09;;;-145.86;94.23
51585;BME280;37669;50.312;18.670;2022-12-04T16:04:30;49438.78;;;-145.86;94.41
51585;BME280;37669;50.312;18.670;2022-12-04T16:07:00;49422.94;;;-145.86;94.63
51585;BME280;37669;50.312;18.670;2022-12-04T16:09:27;49428.88;;;-145.86;94.50
51585;BME280;37669;50.312;18.670;2022-12-04T16:11:59;49399.16;;;-145.86;94.51
51585;BME280;37669;50.312;18.670;2022-12-04T16:14:27;49409.06;;;-145.86;94.60
51585;BME280;37669;50.312;18.670;2022-12-04T16:16:57;49432.81;;;-145.86;94.73
51585;BME280;37669;50.312;18.670;2022-12-04T16:19:29;49418.97;;;-145.86;94.77
51585;BME280;37669;50.312;18.670;2022-12-04T16:21:57;49436.78;;;-145.86;94.37
51585;BME280;37669;50.312;18.670;2022-12-04T16:24:25;49434.81;;;-145.86;94.46
51585;BME280;37669;50.312;18.670;2022-12-04T16:26:54;49438.78;;;-145.86;94.38
51585;BME280;37669;50.312;18.670;2022-12-04T16:29:21;49409.06;;;-145.86;94.51
51585;BME280;37669;50.312;18.670;2022-12-04T16:31:49;49389.25;;;-145.86;94.67
51585;BME280;37669;50.312;18.670;2022-12-04T16:34:18;49422.94;;;-145.86;94.88
51585;BME280;37669;50.312;18.670;2022-12-04T16:36:45;49428.88;;;-145.86;95.07
51585;BME280;37669;50.312;18.670;2022-12-04T16:39:12;49407.09;;;-145.86;94.90
51585;BME280;37669;50.312;18.670;2022-12-04T16:41:39;49413.03;;;-145.86;95.01
51585;BME280;37669;50.312;18.670;2022-12-04T16:44:12;49405.09;;;-145.86;94.90
51585;BME280;37669;50.312;18.670;2022-12-04T16:46:41;49440.75;;;-145.86;94.72
51585;BME280;37669;50.312;18.670;2022-12-04T16:49:09;49424.91;;;-145.86;94.92
51585;BME280;37669;50.312;18.670;2022-12-04T16:51:44;49444.72;;;-145.86;94.93
51585;BME280;37669;50.312;18.670;2022-12-04T16:54:14;49405.09;;;-145.86;95.12
51585;BME280;37669;50.312;18.670;2022-12-04T16:56:41;49420.94;;;-145.86;95.10
51585;BME280;37669;50.312;18.670;2022-12-04T16:59:08;49428.88;;;-145.86;94.93
51585;BME280;37669;50.312;18.670;2022-12-04T17:01:38;49411.03;;;-145.86;95.06
51585;BME280;37669;50.312;18.670;2022-12-04T17:04:05;49409.06;;;-145.86;95.03
51585;BME280;37669;50.312;18.670;2022-12-04T17:06:33;49420.94;;;-145.86;95.19
51585;BME280;37669;50.312;18.670;2022-12-04T17:09:01;49424.91;;;-145.86;95.11
51585;BME280;37669;50.312;18.670;2022-12-04T17:11:28;49399.16;;;-145.86;95.21
51585;BME280;37669;50.312;18.670;2022-12-04T17:13:55;49428.88;;;-145.86;95.36
51585;BME280;37669;50.312;18.670;2022-12-04T17:16:22;49424.91;;;-145.86;95.06
51585;BME280;37669;50.312;18.670;2022-12-04T17:18:50;49428.88;;;-145.86;95.21
51585;BME280;37669;50.312;18.670;2022-12-04T17:21:17;49413.03;;;-145.86;95.27
51585;BME280;37669;50.312;18.670;2022-12-04T17:23:44;49434.81;;;-145.86;95.50
51585;BME280;37669;50.312;18.670;2022-12-04T17:26:13;49430.84;;;-145.86;95.38
51585;BME280;37669;50.312;18.670;2022-12-04T17:28:41;49440.75;;;-145.86;95.49
51585;BME280;37669;50.312;18.670;2022-12-04T17:31:13;49452.63;;;-145.86;95.72
51585;BME280;37669;50.312;18.670;2022-12-04T17:33:41;49420.94;;;-145.86;95.70
51585;BME280;37669;50.312;18.670;2022-12-04T17:36:09;49420.94;;;-145.86;95.81
51585;BME280;37669;50.312;18.670;2022-12-04T17:38:36;49432.81;;;-145.86;95.76
51585;BME280;37669;50.312;18.670;2022-12-04T17:41:06;49446.69;;;-145.86;95.60
51585;BME280;37669;50.312;18.670;2022-12-04T17:43:35;49430.84;;;-145.86;95.68
51585;BME280;37669;50.312;18.670;2022-12-04T17:46:08;49448.66;;;-145.86;95.87
51585;BME280;37669;50.312;18.670;2022-12-04T17:48:41;49426.88;;;-145.86;96.04
51585;BME280;37669;50.312;18.670;2022-12-04T17:51:14;49438.78;;;-145.86;95.92
51585;BME280;37669;50.312;18.670;2022-12-04T17:53:53;49438.78;;;-145.86;95.73
51585;BME280;37669;50.312;18.670;2022-12-04T17:56:21;49426.88;;;-145.86;95.70
51585;BME280;37669;50.312;18.670;2022-12-04T17:58:51;49432.81;;;-145.86;95.78
51585;BME280;37669;50.312;18.670;2022-12-04T20:53:56;49460.56;;;-145.86;96.68
51585;BME280;37669;50.312;18.670;2022-12-04T20:56:27;49460.56;;;-145.86;96.79
51585;BME280;37669;50.312;18.670;2022-12-04T20:58:56;49452.63;;;-145.86;96.74
51585;BME280;37669;50.312;18.670;2022-12-04T21:01:23;49458.56;;;-145.86;96.93
51585;BME280;37669;50.312;18.670;2022-12-04T21:03:51;49426.88;;;-145.86;96.82
51585;BME280;37669;50.312;18.670;2022-12-04T21:06:20;49444.72;;;-145.86;96.92
51585;BME280;37669;50.312;18.670;2022-12-04T21:08:48;49462.53;;;-145.86;96.96
51585;BME280;37669;50.312;18.670;2022-12-04T21:11:23;49488.28;;;-145.86;97.00
51585;BME280;37669;50.312;18.670;2022-12-04T21:13:50;49462.53;;;-145.86;96.57
51585;BME280;37669;50.312;18.670;2022-12-04T21:16:35;49436.78;;;-145.86;96.79
51585;BME280;37669;50.312;18.670;2022-12-04T21:19:04;49492.25;;;-145.86;96.98
51585;BME280;37669;50.312;18.670;2022-12-04T21:21:32;49466.50;;;-145.86;96.90
51585;BME280;37669;50.312;18.670;2022-12-04T21:23:59;49468.47;;;-145.86;97.03
51585;BME280;37669;50.312;18.670;2022-12-04T21:26:28;49444.72;;;-145.86;97.01
51585;BME280;37669;50.312;18.670;2022-12-04T21:28:55;49456.59;;;-145.86;96.99
51585;BME280;37669;50.312;18.670;2022-12-04T21:31:23;49462.53;;;-145.86;97.00
51585;BME280;37669;50.312;18.670;2022-12-04T21:33:53;49456.59;;;-145.86;96.89
51585;BME280;37669;50.312;18.670;2022-12-04T21:36:20;49472.44;;;-145.86;96.92
51585;BME280;37669;50.312;18.670;2022-12-04T21:38:48;49480.34;;;-145.86;97.06
51585;BME280;37669;50.312;18.670;2022-12-04T21:41:15;49460.56;;;-145.86;97.25
51585;BME280;37669;50.312;18.670;2022-12-04T21:43:57;49488.28;;;-145.86;97.29
51585;BME280;37669;50.312;18.670;2022-12-04T21:46:24;49468.47;;;-145.86;97.24
51585;BME280;37669;50.312;18.670;2022-12-04T21:48:51;49452.63;;;-145.86;97.20
51585;BME280;37669;50.312;18.670;2022-12-04T21:51:18;49460.56;;;-145.86;97.48
51585;BME280;37669;50.312;18.670;2022-12-04T21:53:45;49440.75;;;-145.86;97.52
51585;BME280;37669;50.312;18.670;2022-12-04T21:56:12;49472.44;;;-145.86;97.67
51585;BME280;37669;50.312;18.670;2022-12-04T21:58:40;49468.47;;;-145.86;97.95
51585;BME280;37669;50.312;18.670;2022-12-04T22:01:09;49468.47;;;-145.86;98.01
51585;BME280;37669;50.312;18.670;2022-12-04T22:03:37;49492.25;;;-145.86;98.16
51585;BME280;37669;50.312;18.670;2022-12-04T22:06:04;49456.59;;;-145.86;97.99
51585;BME280;37669;50.312;18.670;2022-12-04T22:08:34;49476.41;;;-145.86;98.15
51585;BME280;37669;50.312;18.670;2022-12-04T22:11:03;49460.56;;;-145.86;98.27
51585;BME280;37669;50.312;18.670;2022-12-04T22:13:31;49468.47;;;-145.86;98.15
51585;BME280;37669;50.312;18.670;2022-12-04T22:16:01;49474.41;;;-145.86;98.12
51585;BME280;37669;50.312;18.670;2022-12-04T22:18:29;49480.34;;;-145.86;97.94
51585;BME280;37669;50.312;18.670;2022-12-04T22:20:58;49472.44;;;-145.86;98.17
51585;BME280;37669;50.312;18.670;2022-12-04T22:23:25;49496.19;;;-145.86;98.05
51585;BME280;37669;50.312;18.670;2022-12-04T22:25:52;49492.25;;;-145.86;98.24
51585;BME280;37669;50.312;18.670;2022-12-04T22:28:19;49466.50;;;-145.86;98.24
51585;BME280;37669;50.312;18.670;2022-12-04T22:30:46;49492.25;;;-145.86;98.35
51585;BME280;37669;50.312;18.670;2022-12-04T22:33:13;49466.50;;;-145.86;98.44
51585;BME280;37669;50.312;18.670;2022-12-04T22:35:42;49500.16;;;-145.86;98.50
51585;BME280;37669;50.312;18.670;2022-12-04T22:38:09;49460.56;;;-145.86;98.76
51585;BME280;37669;50.312;18.670;2022-12-04T22:40:38;49488.28;;;-145.86;98.69
51585;BME280;37669;50.312;18.670;2022-12-04T22:43:05;49508.06;;;-145.86;98.77
51585;BME280;37669;50.312;18.670;2022-12-04T22:45:32;49490.25;;;-145.86;98.87
51585;BME280;37669;50.312;18.670;2022-12-04T22:47:59;49468.47;;;-145.86;98.93
51585;BME280;37669;50.312;18.670;2022-12-04T22:50:27;49519.97;;;-145.86;98.93
51585;BME280;37669;50.312;18.670;2022-12-04T22:53:03;49512.03;;;-145.86;98.88
